Terminal Aerodrome Forecast
Issued by NWS Twin Cities, MN

Home | Current Version | Previous Version | Text Only | Print | Product List | Glossary On
Versions: 1 2 3 4 5 6 7 8 9 10 11 12 13 14 15 16
000
FTUS43 KMPX 280500
TAFEAU
TAF
KEAU 280520Z 2806/2906 00000KT P6SM SCT250
      TEMPO 2810/2813 4SM BR
     FM281700 13007KT P6SM SCT030 OVC150
     FM282300 13007KT 6SM -SHRA BKN022 OVC040
     FM290200 12007KT 5SM -SHRA BR SCT007 OVC010=

USA.gov is the U.S. government's official web portal to all federal, state and local government web resources and services.